Time;durP1;ratioP1;P1;durP2;ratioP2;P2;SDS_P1;SDS_P2;PMS_P1;PMS_P2;Temp;Humidity;BMP_temperature;BMP_pressure;BME280_temperature;BME280_humidity;BME280_pressure;Samples;Min_cycle;Max_cycle;Signal;HPM_P1;HPM_P2
2022/06/14 00:01:55;;;;;;;3.35;1.30;;;;;;;23.47;34.17;102198.63;5072420;28;20110;-77
2022/06/14 00:04:21;;;;;;;4.50;1.45;;;;;;;23.51;33.73;102194.75;5072587;28;20111;-76
2022/06/14 00:06:48;;;;;;;5.25;1.98;;;;;;;23.46;34.05;102188.63;5072357;28;20067;-77
2022/06/14 00:09:13;;;;;;;5.95;1.52;;;;;;;23.38;34.04;102190.47;5071031;28;20028;-76
2022/06/14 00:11:40;;;;;;;7.43;2.30;;;;;;;23.37;34.20;102186.06;5072143;28;20024;-77
2022/06/14 00:14:09;;;;;;;2.72;1.42;;;;;;;23.42;34.08;102182.97;5072704;28;20035;-76
2022/06/14 00:16:36;;;;;;;3.88;1.23;;;;;;;23.45;33.80;102187.03;5072482;28;20078;-77
2022/06/14 00:19:04;;;;;;;7.18;1.80;;;;;;;23.32;33.97;102186.34;5071209;28;20443;-77
2022/06/14 00:21:32;;;;;;;4.55;1.45;;;;;;;23.38;34.02;102184.09;5072487;28;20048;-77
2022/06/14 00:23:59;;;;;;;3.30;1.50;;;;;;;23.33;34.00;102185.16;5072299;28;20040;-76
2022/06/14 00:26:25;;;;;;;7.93;2.25;;;;;;;23.28;34.22;102185.47;5072396;28;20028;-77
2022/06/14 00:28:50;;;;;;;3.65;1.25;;;;;;;23.26;34.38;102182.22;5071069;28;20033;-77
2022/06/14 00:31:20;;;;;;;4.15;1.48;;;;;;;23.36;34.14;102176.09;5071894;28;20082;-76
2022/06/14 00:33:45;;;;;;;2.63;1.33;;;;;;;23.40;33.97;102176.16;5072387;28;20064;-77
2022/06/14 00:36:29;;;;;;;4.00;1.40;;;;;;;23.32;34.31;102172.41;5072314;28;20056;-77
2022/06/14 00:38:56;;;;;;;4.32;1.50;;;;;;;23.37;34.18;102172.13;5072192;28;20030;-77
2022/06/14 00:41:44;;;;;;;4.75;1.65;;;;;;;23.38;34.29;102164.56;5071878;28;20101;-77
2022/06/14 00:44:16;;;;;;;3.65;1.45;;;;;;;23.45;34.08;102164.72;5071891;28;20029;-76
2022/06/14 00:47:09;;;;;;;4.57;1.63;;;;;;;23.42;34.41;102165.44;5072320;28;20032;-77
2022/06/14 00:49:48;;;;;;;5.20;1.58;;;;;;;23.42;34.25;102162.63;5072159;28;20029;-77
2022/06/14 00:52:26;;;;;;;2.65;1.30;;;;;;;23.45;34.33;102161.91;5071832;28;20021;-77
2022/06/14 00:54:58;;;;;;;4.60;1.70;;;;;;;23.43;34.60;102161.50;5072229;28;20032;-77
2022/06/14 00:57:46;;;;;;;3.28;1.58;;;;;;;23.44;34.29;102157.53;5070893;28;20020;-77
2022/06/14 01:00:16;;;;;;;6.57;1.83;;;;;;;23.38;34.37;102158.97;5071501;28;20043;-76
2022/06/14 01:02:47;;;;;;;2.47;1.27;;;;;;;23.28;34.42;102160.38;5071848;28;20118;-77
2022/06/14 01:05:21;;;;;;;5.88;1.60;;;;;;;23.23;34.92;102155.88;5072075;28;20467;-77
2022/06/14 01:07:49;;;;;;;1.95;1.20;;;;;;;23.26;34.53;102152.34;5072021;28;20048;-76
2022/06/14 01:10:20;;;;;;;6.70;1.45;;;;;;;23.26;35.00;102154.34;5072044;28;20039;-76
2022/06/14 01:12:53;;;;;;;2.88;1.45;;;;;;;23.29;34.78;102153.63;5071785;28;20471;-76
2022/06/14 01:15:25;;;;;;;3.97;1.40;;;;;;;23.30;34.47;102152.44;5070727;28;20032;-76
2022/06/14 01:17:58;;;;;;;6.88;1.83;;;;;;;23.32;34.67;102141.72;5070631;28;20020;-77
2022/06/14 01:20:24;;;;;;;3.60;1.50;;;;;;;23.32;34.70;102143.72;5071826;28;20052;-76
2022/06/14 01:22:51;;;;;;;5.13;1.80;;;;;;;23.28;34.81;102143.66;5073567;28;20048;-77
2022/06/14 01:25:18;;;;;;;3.40;1.10;;;;;;;23.24;34.95;102140.78;5075473;28;20036;-76
2022/06/14 01:27:44;;;;;;;2.80;1.45;;;;;;;23.26;34.63;102144.00;5075551;28;20105;-76
2022/06/14 01:30:24;;;;;;;5.28;1.13;;;;;;;23.31;34.95;102142.09;5074229;28;20025;-76
2022/06/14 01:33:13;;;;;;;2.38;1.60;;;;;;;23.22;34.99;102134.75;5073883;28;20028;-76
2022/06/14 01:35:45;;;;;;;2.83;1.50;;;;;;;23.26;34.86;102137.59;5074156;28;20033;-77
2022/06/14 01:38:15;;;;;;;3.45;1.55;;;;;;;23.23;35.09;102133.59;5075364;28;20455;-77
2022/06/14 01:41:03;;;;;;;1.88;1.30;;;;;;;23.17;34.91;102123.88;5075049;28;20037;-77
2022/06/14 01:44:00;;;;;;;4.25;1.50;;;;;;;23.17;34.97;102131.44;5055275;28;20538;-77
2022/06/14 01:46:43;;;;;;;6.15;1.50;;;;;;;23.12;34.98;102129.75;5042867;28;20041;-77
2022/06/14 01:52:37;;;;;;;5.45;2.40;;;;;;;23.16;35.14;102130.63;5069743;28;20050;-76
2022/06/14 01:55:11;;;;;;;3.90;1.42;;;;;;;23.15;35.22;102128.22;5074894;28;20111;-77
2022/06/14 01:58:00;;;;;;;4.28;1.60;;;;;;;23.14;35.05;102132.19;5074901;28;20440;-77
2022/06/14 02:00:33;;;;;;;7.05;2.05;;;;;;;23.15;34.97;102129.03;5074733;28;20029;-76
2022/06/14 02:06:29;;;;;;;4.63;1.70;;;;;;;23.11;35.45;102125.34;5074864;28;20031;-77
2022/06/14 02:09:05;;;;;;;8.73;2.13;;;;;;;22.98;35.64;102132.25;5074775;28;20487;-77
2022/06/14 02:11:35;;;;;;;6.60;1.83;;;;;;;23.07;35.25;102123.66;5074513;28;20364;-77
2022/06/14 02:14:12;;;;;;;4.38;1.40;;;;;;;23.08;35.52;102128.06;5074647;28;20029;-76
2022/06/14 02:16:46;;;;;;;6.22;1.63;;;;;;;23.07;35.48;102129.25;5074633;28;20032;-77
2022/06/14 02:19:30;;;;;;;8.18;3.08;;;;;;;23.05;35.48;102124.03;5074421;28;20025;-77
2022/06/14 02:22:03;;;;;;;3.60;1.67;;;;;;;23.05;35.25;102120.41;5074006;28;20507;-76
2022/06/14 02:24:36;;;;;;;3.95;1.77;;;;;;;23.07;35.51;102118.91;5074463;28;20708;-76
2022/06/14 02:27:25;;;;;;;5.85;2.13;;;;;;;23.03;35.89;102120.78;5073193;28;20427;-77
2022/06/14 02:30:05;;;;;;;7.63;1.95;;;;;;;23.03;35.80;102109.63;5074121;28;20046;-77
2022/06/14 02:32:53;;;;;;;4.95;2.20;;;;;;;23.03;35.70;102115.22;5073927;28;20041;-77
2022/06/14 02:35:28;;;;;;;6.70;1.92;;;;;;;22.99;36.13;102111.56;5074183;28;20028;-76
2022/06/14 02:38:04;;;;;;;4.45;1.67;;;;;;;22.86;36.09;102104.50;5074276;28;20074;-77
2022/06/14 02:40:38;;;;;;;3.53;1.88;;;;;;;22.85;35.93;102103.69;5074063;28;20029;-77
2022/06/14 02:43:14;;;;;;;5.43;2.13;;;;;;;22.85;35.86;102105.63;5071548;28;20017;-77
2022/06/14 02:45:46;;;;;;;8.63;2.30;;;;;;;22.84;36.21;102098.44;5073965;28;20032;-77
2022/06/14 02:48:21;;;;;;;4.88;1.67;;;;;;;22.82;35.95;102097.97;5073548;28;20097;-77
2022/06/14 02:51:10;;;;;;;5.50;1.90;;;;;;;22.77;36.04;102099.09;5073605;28;20078;-77
2022/06/14 02:53:42;;;;;;;9.25;2.42;;;;;;;22.77;36.14;102092.72;5062507;28;20043;-77
2022/06/14 02:56:22;;;;;;;4.80;1.50;;;;;;;22.74;35.97;102082.28;5073930;28;20209;-77
2022/06/14 02:58:59;;;;;;;5.18;1.73;;;;;;;22.73;36.30;102086.25;5073757;28;20032;-77
2022/06/14 03:01:36;;;;;;;8.00;1.80;;;;;;;22.74;35.99;102087.84;5073476;28;20029;-76
2022/06/14 03:04:12;;;;;;;4.90;2.17;;;;;;;22.69;36.18;102091.75;5073660;28;20100;-77
2022/06/14 03:06:48;;;;;;;6.82;1.58;;;;;;;22.62;36.42;102095.16;5073578;28;20032;-77
2022/06/14 03:09:21;;;;;;;3.88;1.77;;;;;;;22.55;36.38;102094.19;5073582;28;20047;-77
2022/06/14 03:11:58;;;;;;;3.65;1.60;;;;;;;22.57;36.24;102092.66;5073243;28;20035;-77
2022/06/14 03:14:42;;;;;;;5.32;1.67;;;;;;;22.49;36.52;102082.50;5329026;22;20046;-73
2022/06/14 03:17:44;;;;;;;3.97;2.10;;;;;;;22.44;36.34;102091.13;5033201;28;20119;-73
2022/06/14 03:20:24;;;;;;;3.70;1.77;;;;;;;22.36;36.64;102087.38;5033475;28;20037;-73
2022/06/14 03:22:52;;;;;;;6.10;1.85;;;;;;;22.38;36.43;102082.28;5033494;28;20392;-78
2022/06/14 03:25:39;;;;;;;3.10;1.88;;;;;;;22.31;36.76;102084.09;5033048;28;20056;-73
2022/06/14 03:28:09;;;;;;;6.18;2.03;;;;;;;22.29;36.66;102081.66;5033412;28;20033;-73
2022/06/14 03:30:45;;;;;;;3.70;1.80;;;;;;;22.25;36.44;102068.81;5015642;28;20040;-73
2022/06/14 03:33:29;;;;;;;5.10;1.98;;;;;;;22.14;36.74;102077.72;5033181;28;20029;-73
2022/06/14 03:35:55;;;;;;;7.15;1.60;;;;;;;22.10;36.72;102076.81;5032942;28;20037;-76
2022/06/14 03:38:56;;;;;;;7.22;2.55;;;;;;;22.04;36.78;102074.63;5015427;28;20036;-74
2022/06/14 03:41:30;;;;;;;6.53;1.88;;;;;;;22.02;36.83;102074.19;5015962;28;20499;-73
2022/06/14 03:43:59;;;;;;;3.67;1.60;;;;;;;22.00;36.76;102068.97;5032744;28;20049;-73
2022/06/14 03:46:27;;;;;;;4.25;1.60;;;;;;;21.94;36.88;102069.59;5032638;28;20039;-73
2022/06/14 03:49:01;;;;;;;4.65;1.88;;;;;;;21.93;37.02;102068.00;5015227;28;20391;-73
2022/06/14 03:51:58;;;;;;;7.55;1.50;;;;;;;21.84;37.02;102059.81;5015202;28;20033;-73
2022/06/14 03:54:33;;;;;;;3.92;2.10;;;;;;;21.86;36.83;102072.19;5014847;28;20033;-73
2022/06/14 03:57:26;;;;;;;6.05;2.00;;;;;;;21.85;36.87;102073.38;5015079;28;20041;-73
2022/06/14 04:00:22;;;;;;;3.33;1.52;;;;;;;21.87;36.93;102065.47;5032738;28;20111;-73
2022/06/14 04:03:09;;;;;;;11.02;2.63;;;;;;;21.87;37.05;102073.00;5032700;28;20486;-73
2022/06/14 04:05:46;;;;;;;7.40;2.17;;;;;;;21.82;37.26;102074.06;5032477;28;20488;-73
2022/06/14 04:08:18;;;;;;;7.47;1.95;;;;;;;21.86;37.17;102068.63;5032710;28;20041;-74
2022/06/14 04:11:09;;;;;;;4.95;1.55;;;;;;;21.81;37.22;102069.66;5032649;28;20492;-77
2022/06/14 04:13:53;;;;;;;6.93;1.98;;;;;;;21.80;37.16;102061.69;5032400;28;20057;-74
2022/06/14 04:16:26;;;;;;;6.45;1.70;;;;;;;21.73;37.54;102067.06;5012888;28;20057;-73
2022/06/14 04:18:59;;;;;;;6.03;1.63;;;;;;;21.67;37.58;102060.94;5012826;28;20033;-73
2022/06/14 04:22:03;;;;;;;3.92;2.10;;;;;;;21.59;37.57;102059.16;5012765;28;20034;-73
2022/06/14 04:24:36;;;;;;;4.22;1.92;;;;;;;21.56;37.55;102066.25;5019011;28;20514;-73
2022/06/14 04:27:39;;;;;;;5.13;1.98;;;;;;;21.52;37.58;102065.31;5032286;28;20029;-73
2022/06/14 04:30:09;;;;;;;4.32;1.70;;;;;;;21.51;37.75;102060.94;5029705;28;20067;-73
2022/06/14 04:32:44;;;;;;;5.32;2.05;;;;;;;21.45;37.91;102056.78;5032389;28;20033;-73
2022/06/14 04:35:39;;;;;;;8.05;2.47;;;;;;;21.42;37.81;102054.72;5032011;28;20496;-74
2022/06/14 04:38:14;;;;;;;6.70;1.75;;;;;;;21.48;37.87;102055.28;5032317;28;20029;-73
2022/06/14 04:40:52;;;;;;;4.80;1.80;;;;;;;21.47;37.77;102054.47;5014614;28;20385;-73
2022/06/14 04:43:43;;;;;;;10.75;2.38;;;;;;;21.48;37.85;102046.94;5032090;28;20527;-73
2022/06/14 04:46:17;;;;;;;7.25;1.85;;;;;;;21.49;37.74;102046.56;5031962;28;20041;-73
2022/06/14 04:48:53;;;;;;;3.13;1.40;;;;;;;21.44;38.24;102048.78;5032401;28;20060;-73
2022/06/14 04:51:30;;;;;;;8.88;1.67;;;;;;;21.49;38.31;102048.56;5030356;28;20730;-73
2022/06/14 04:54:05;;;;;;;3.13;1.67;;;;;;;21.53;38.43;102049.44;5028442;28;20018;-73
2022/06/14 04:56:37;;;;;;;5.72;2.75;;;;;;;21.66;38.18;102052.97;5034031;28;20025;-73
2022/06/14 04:59:08;;;;;;;7.13;2.42;;;;;;;21.61;38.55;102048.47;5036143;28;20047;-73
2022/06/14 05:01:46;;;;;;;7.43;1.75;;;;;;;21.74;38.46;102043.63;5036033;28;20036;-73
2022/06/14 05:04:32;;;;;;;6.53;2.17;;;;;;;21.93;38.38;102049.31;5035980;28;20533;-73
2022/06/14 05:07:03;;;;;;;4.63;1.70;;;;;;;21.98;38.41;102048.22;5036044;28;20029;-73
2022/06/14 05:09:36;;;;;;;12.15;2.13;;;;;;;22.02;38.58;102055.50;5036006;28;20037;-73
2022/06/14 05:12:14;;;;;;;7.57;1.88;;;;;;;22.23;38.24;102046.91;5035948;28;20048;-73
2022/06/14 05:15:06;;;;;;;9.23;2.67;;;;;;;22.28;38.35;102054.16;5035429;28;20045;-73
2022/06/14 05:17:39;;;;;;;6.75;1.75;;;;;;;22.37;38.12;102038.09;5021809;28;20116;-74
2022/06/14 05:20:17;;;;;;;5.65;1.52;;;;;;;22.44;38.19;102049.38;5035803;28;20029;-74
2022/06/14 05:22:59;;;;;;;4.90;1.70;;;;;;;22.39;38.51;102052.44;5017793;28;20095;-74
2022/06/14 05:25:55;;;;;;;7.15;1.65;;;;;;;22.48;38.32;102044.69;5035479;28;20098;-74
2022/06/14 05:28:35;;;;;;;12.85;2.17;;;;;;;22.57;38.34;102047.28;4998133;28;20057;-73
2022/06/14 05:31:12;;;;;;;;;;;;;;;22.41;38.55;102044.53;5035971;28;20051;-78
2022/06/14 05:34:16;;;;;;;11.15;2.17;;;;;;;22.58;38.48;102044.13;5035157;28;19917;-74
2022/06/14 05:36:56;;;;;;;8.43;2.10;;;;;;;22.86;38.03;102045.97;5018139;28;20038;-73
2022/06/14 05:39:56;;;;;;;7.85;2.47;;;;;;;22.89;37.68;102045.22;5017662;28;20056;-79
2022/06/14 05:42:29;;;;;;;6.65;1.65;;;;;;;23.01;37.72;102031.16;5034807;28;20488;-74
2022/06/14 05:45:00;;;;;;;8.23;2.47;;;;;;;22.98;37.71;102031.91;5034841;28;20147;-73
2022/06/14 05:47:49;;;;;;;5.55;2.13;;;;;;;23.00;37.62;102037.09;5031446;28;20025;-73
2022/06/14 05:50:22;;;;;;;6.38;2.30;;;;;;;23.00;37.89;102032.34;5035289;28;20060;-74
2022/06/14 05:52:53;;;;;;;4.55;1.75;;;;;;;23.13;37.40;102031.03;5007862;28;20056;-74
2022/06/14 05:55:35;;;;;;;7.90;2.22;;;;;;;23.23;37.54;102036.00;5025119;28;20048;-74
2022/06/14 05:58:10;;;;;;;5.13;2.10;;;;;;;23.19;37.74;102032.31;5024403;28;20468;-79
2022/06/14 06:00:43;;;;;;;7.90;2.13;;;;;;;23.32;37.47;102041.34;5005560;28;20495;-80
2022/06/14 06:03:17;;;;;;;5.55;1.58;;;;;;;23.36;37.43;102045.00;5022961;28;20100;-79
2022/06/14 06:05:47;;;;;;;7.45;1.67;;;;;;;23.44;37.69;102040.38;5026133;28;20030;-75
2022/06/14 06:08:30;;;;;;;5.95;1.70;;;;;;;23.58;37.26;102040.63;5005808;28;20108;-74
2022/06/14 06:11:19;;;;;;;9.88;2.35;;;;;;;23.59;37.42;102044.25;5025546;28;20026;-74
2022/06/14 06:13:58;;;;;;;8.57;1.60;;;;;;;23.56;36.89;102031.81;5025656;28;20480;-75
2022/06/14 06:16:37;;;;;;;4.50;1.30;;;;;;;23.53;37.26;102036.16;5031786;28;20025;-74
2022/06/14 06:19:14;;;;;;;8.90;2.20;;;;;;;23.47;37.07;102040.44;5034394;28;20028;-74
2022/06/14 06:22:11;;;;;;;5.15;1.83;;;;;;;23.50;37.12;102041.66;5016820;28;20092;-75
2022/06/14 06:24:48;;;;;;;3.00;1.40;;;;;;;23.61;36.88;102036.31;5016594;28;20080;-74
2022/06/14 06:27:14;;;;;;;7.63;1.70;;;;;;;23.67;36.80;102044.03;5016789;28;20032;-73
2022/06/14 06:29:47;;;;;;;4.03;1.42;;;;;;;23.70;36.43;102045.25;5034123;28;20021;-74
2022/06/14 06:32:13;;;;;;;6.63;1.83;;;;;;;23.71;36.82;102044.88;5034377;28;20029;-80
2022/06/14 06:34:41;;;;;;;6.38;1.70;;;;;;;23.71;36.18;102047.66;5034393;28;20025;-75
2022/06/14 06:37:15;;;;;;;8.95;1.98;;;;;;;23.67;36.50;102048.78;5034332;28;20029;-74
2022/06/14 06:39:52;;;;;;;7.22;1.70;;;;;;;23.72;36.05;102043.69;5016151;28;20026;-75
2022/06/14 06:42:41;;;;;;;8.55;1.70;;;;;;;23.67;35.84;102046.00;5034187;28;20026;-79
2022/06/14 06:45:29;;;;;;;7.88;1.77;;;;;;;23.68;36.26;102051.22;5034243;28;20438;-74
2022/06/14 06:48:07;;;;;;;6.13;1.60;;;;;;;23.87;35.79;102046.72;5033156;28;20042;-74
2022/06/14 06:50:35;;;;;;;5.72;1.70;;;;;;;23.97;35.71;102048.91;5031936;28;20037;-79
2022/06/14 06:53:11;;;;;;;6.88;1.80;;;;;;;24.09;35.50;102037.53;5014232;28;20528;-74
2022/06/14 06:55:37;;;;;;;7.05;1.95;;;;;;;24.08;34.98;102036.72;4996617;28;20113;-74
2022/06/14 06:58:09;;;;;;;5.13;1.88;;;;;;;24.27;34.77;102038.66;5025984;28;20108;-74
2022/06/14 07:00:38;;;;;;;6.93;2.17;;;;;;;24.39;34.07;102036.84;5033672;28;20390;-74
2022/06/14 07:03:15;;;;;;;11.82;2.65;;;;;;;24.26;34.70;102033.44;5033847;28;20413;-74
2022/06/14 07:05:42;;;;;;;15.13;2.75;;;;;;;24.27;34.14;102033.06;5033839;28;20056;-74
2022/06/14 07:08:14;;;;;;;14.00;2.75;;;;;;;24.53;33.93;102037.84;5016036;28;20387;-74
2022/06/14 07:10:46;;;;;;;4.68;1.50;;;;;;;24.59;33.66;102036.34;5032600;28;20037;-73
2022/06/14 07:13:28;;;;;;;3.00;1.20;;;;;;;24.80;33.27;102030.25;5033679;28;20034;-74
2022/06/14 07:16:26;;;;;;;6.72;1.98;;;;;;;24.88;33.08;102034.75;5033648;28;20567;-74
2022/06/14 07:19:34;;;;;;;9.88;1.60;;;;;;;24.65;33.26;102039.63;5032801;28;20036;-74
2022/06/14 07:22:15;;;;;;;6.05;2.60;;;;;;;24.47;33.13;102038.53;5026174;28;20025;-75
2022/06/14 07:25:23;;;;;;;30.55;3.45;;;;;;;24.76;32.90;102032.16;5027301;28;20487;-74
2022/06/14 07:27:52;;;;;;;4.88;1.55;;;;;;;24.91;32.60;102033.16;5013067;28;20038;-79
2022/06/14 07:30:24;;;;;;;8.40;2.22;;;;;;;25.07;32.63;102035.78;5021660;28;20076;-74
2022/06/14 07:32:53;;;;;;;11.18;1.65;;;;;;;25.14;32.80;102036.66;5020132;28;20033;-79
2022/06/14 07:35:31;;;;;;;5.03;1.75;;;;;;;25.41;32.42;102030.97;5017890;28;20529;-74
2022/06/14 07:38:17;;;;;;;9.95;2.38;;;;;;;25.64;32.45;102031.63;5023605;28;20018;-79
2022/06/14 07:40:58;;;;;;;6.47;2.40;;;;;;;25.84;32.32;102029.41;5019992;28;20026;-75
2022/06/14 07:43:32;;;;;;;4.30;1.73;;;;;;;25.68;32.42;102026.03;5021891;28;20049;-75
2022/06/14 07:46:05;;;;;;;7.30;1.35;;;;;;;25.78;31.83;102027.38;5021254;28;20093;-75
2022/06/14 07:48:51;;;;;;;12.80;6.90;;;;;;;25.89;31.72;102029.06;5024179;28;20533;-75
2022/06/14 07:51:22;;;;;;;7.55;1.63;;;;;;;25.62;32.16;102036.00;5019372;28;20891;-77
2022/06/14 07:54:02;;;;;;;8.85;2.35;;;;;;;25.74;32.09;102030.13;5022309;28;20026;-77
2022/06/14 07:56:47;;;;;;;6.55;2.35;;;;;;;25.77;31.79;102034.13;5042645;28;20399;-80
2022/06/14 07:59:39;;;;;;;7.72;1.90;;;;;;;25.56;31.76;102023.53;5025074;28;20168;-74
2022/06/14 08:02:04;;;;;;;4.22;1.33;;;;;;;25.90;31.38;102019.47;5017101;28;20518;-75
2022/06/14 08:04:38;;;;;;;7.90;3.25;;;;;;;25.82;31.97;102025.41;5028685;28;20033;-76
2022/06/14 08:07:16;;;;;;;4.32;1.80;;;;;;;25.93;31.46;102021.50;5036798;28;20055;-74
2022/06/14 08:09:44;;;;;;;16.35;3.30;;;;;;;26.15;31.39;102013.28;5012162;28;20041;-73
2022/06/14 08:12:36;;;;;;;6.72;1.88;;;;;;;26.33;31.27;102010.56;5012074;28;20034;-75
2022/06/14 08:15:18;;;;;;;5.00;1.50;;;;;;;26.53;30.68;102014.75;4993257;28;20038;-75
2022/06/14 08:17:53;;;;;;;4.50;1.33;;;;;;;26.68;30.48;102005.22;5030861;28;20502;-75
2022/06/14 08:20:44;;;;;;;3.28;1.50;;;;;;;26.11;30.17;102010.44;5031494;28;20034;-75
2022/06/14 08:23:20;;;;;;;3.85;1.35;;;;;;;26.27;30.29;102004.53;5031594;28;20071;-74
2022/06/14 08:25:50;;;;;;;6.88;1.63;;;;;;;26.65;30.13;102003.16;5031143;28;20371;-74
2022/06/14 08:28:40;;;;;;;7.32;2.00;;;;;;;26.89;29.97;102003.66;5032191;28;20028;-79
2022/06/14 08:31:19;;;;;;;4.53;1.58;;;;;;;27.34;29.55;102005.03;5031218;28;20399;-75
2022/06/14 08:33:52;;;;;;;5.67;1.87;;;;;;;27.24;29.63;101997.41;5031560;28;20025;-75
2022/06/14 08:36:24;;;;;;;4.50;1.20;;;;;;;27.25;29.46;102005.41;5030166;28;20255;-75
2022/06/14 08:38:59;;;;;;;7.45;1.77;;;;;;;27.20;29.42;102007.81;5014546;28;20041;-75
2022/06/14 08:41:39;;;;;;;7.65;1.65;;;;;;;27.21;29.64;102015.06;5031571;28;20025;-75
2022/06/14 08:44:14;;;;;;;8.65;2.10;;;;;;;27.33;29.26;102009.03;5030477;28;20075;-75
2022/06/14 08:46:56;;;;;;;4.65;1.70;;;;;;;27.26;29.69;102012.63;5030263;28;20564;-75
2022/06/14 08:49:42;;;;;;;4.57;1.35;;;;;;;26.78;29.80;102021.25;5030534;28;20036;-75
2022/06/14 08:52:23;;;;;;;6.85;1.48;;;;;;;26.66;30.10;102018.78;5030566;28;20040;-75
2022/06/14 08:55:16;;;;;;;4.68;1.67;;;;;;;26.35;30.37;102019.38;5030125;28;20120;-75
2022/06/14 08:58:12;;;;;;;5.53;1.80;;;;;;;26.43;30.28;102016.28;5029807;28;20025;-75
2022/06/14 09:01:09;;;;;;;4.15;1.35;;;;;;;26.42;30.57;102006.25;5032219;28;20026;-75
2022/06/14 09:03:35;;;;;;;4.35;1.80;;;;;;;26.56;30.22;102016.75;5005629;28;20041;-75
2022/06/14 09:06:37;;;;;;;4.70;1.50;;;;;;;26.79;30.56;102006.03;5031935;28;20037;-75
2022/06/14 09:09:22;;;;;;;33.50;4.38;;;;;;;27.33;30.16;102006.25;5012491;28;20037;-75
2022/06/14 09:12:14;;;;;;;6.90;1.70;;;;;;;27.69;29.97;102000.72;5012408;28;20021;-75
2022/06/14 09:15:03;;;;;;;3.60;1.50;;;;;;;27.64;29.42;102011.09;5012211;28;20050;-75
2022/06/14 09:17:38;;;;;;;4.63;1.00;;;;;;;28.10;28.77;102006.69;5014109;28;20372;-74
2022/06/14 09:20:37;;;;;;;7.85;1.65;;;;;;;28.06;29.08;102012.31;5031986;28;20083;-74
2022/06/14 09:23:17;;;;;;;6.78;2.00;;;;;;;27.56;28.59;102009.47;5021417;28;20041;-79
2022/06/14 09:26:06;;;;;;;4.95;1.40;;;;;;;27.49;28.99;102009.47;5031898;28;20040;-75
2022/06/14 09:28:56;;;;;;;4.05;1.40;;;;;;;27.44;28.97;102017.50;5032085;28;20053;-75
2022/06/14 09:31:43;;;;;;;8.98;3.45;;;;;;;27.38;29.02;102012.28;5031995;28;20376;-75
2022/06/14 09:34:27;;;;;;;10.98;2.13;;;;;;;27.50;29.08;102013.06;5013897;28;20034;-75
2022/06/14 09:37:19;;;;;;;4.68;1.98;;;;;;;27.19;29.23;102011.81;5031603;28;20033;-75
2022/06/14 09:39:50;;;;;;;8.00;1.70;;;;;;;27.22;29.48;102011.03;5031745;28;20067;-75
2022/06/14 09:42:41;;;;;;;10.43;2.05;;;;;;;27.43;28.97;102013.88;5031895;28;20549;-79
2022/06/14 09:45:31;;;;;;;2.88;1.73;;;;;;;27.45;29.11;102007.88;5035338;28;20036;-75
2022/06/14 09:48:33;;;;;;;5.32;1.63;;;;;;;27.20;29.61;102005.81;5035304;28;20026;-74
2022/06/14 09:51:22;;;;;;;8.45;2.38;;;;;;;27.66;29.09;102016.31;5035181;28;20025;-75
2022/06/14 09:54:05;;;;;;;4.10;1.50;;;;;;;27.73;28.90;102013.53;5035067;28;20021;-75
2022/06/14 09:56:40;;;;;;;6.43;1.80;;;;;;;27.72;28.88;102008.31;5017126;28;20064;-75
2022/06/14 09:59:27;;;;;;;9.70;2.05;;;;;;;28.03;28.64;101999.06;5035070;28;20108;-75
2022/06/14 10:01:58;;;;;;;17.65;3.00;;;;;;;28.36;28.32;102000.66;5035062;28;20097;-75
2022/06/14 10:04:42;;;;;;;4.78;1.65;;;;;;;28.54;28.28;101997.00;5035070;28;20022;-75
2022/06/14 10:07:13;;;;;;;2.47;1.23;;;;;;;27.93;28.58;102006.31;5034659;28;20029;-79
2022/06/14 10:09:54;;;;;;;11.18;3.47;;;;;;;27.61;29.01;101995.06;5017144;28;20036;-75
2022/06/14 10:12:47;;;;;;;6.72;2.00;;;;;;;27.69;28.69;101998.69;5034839;28;20025;-75
2022/06/14 10:15:16;;;;;;;8.23;1.90;;;;;;;27.53;28.82;102004.69;5034719;28;20041;-75
2022/06/14 10:17:58;;;;;;;7.40;1.80;;;;;;;27.31;28.69;101992.63;5034587;28;20026;-75
2022/06/14 10:20:24;;;;;;;9.35;2.75;;;;;;;27.45;28.56;102000.25;5034691;28;20033;-74
2022/06/14 10:23:26;;;;;;;11.10;2.42;;;;;;;27.57;28.00;101987.81;5016858;28;20025;-74
2022/06/14 10:29:20;;;;;;;5.20;1.83;;;;;;;27.90;28.44;102006.31;5034577;28;20068;-76
2022/06/14 10:32:13;;;;;;;6.03;1.80;;;;;;;28.19;28.38;102005.09;5034481;28;20527;-75
2022/06/14 10:34:51;;;;;;;5.97;1.67;;;;;;;28.37;27.93;101993.03;5034506;28;20496;-75
2022/06/14 10:37:16;;;;;;;5.90;2.35;;;;;;;28.20;28.14;101992.66;5034314;28;20025;-74
2022/06/14 10:40:11;;;;;;;6.18;1.70;;;;;;;28.46;27.88;101994.19;5034216;28;20025;-74
2022/06/14 10:43:07;;;;;;;5.93;1.67;;;;;;;28.60;27.38;101984.91;5034376;28;20383;-80
2022/06/14 10:45:43;;;;;;;5.07;1.60;;;;;;;28.79;27.41;101988.44;5034005;28;20455;-74
2022/06/14 10:48:50;;;;;;;6.28;1.60;;;;;;;28.80;26.58;101981.63;5034201;28;20105;-75
2022/06/14 10:51:36;;;;;;;5.38;1.63;;;;;;;28.83;26.43;102001.31;4986368;28;20038;-75
2022/06/14 10:54:24;;;;;;;8.02;1.90;;;;;;;28.87;26.21;101967.50;5033860;28;20029;-74
2022/06/14 10:57:16;;;;;;;8.52;2.10;;;;;;;28.67;26.49;101978.47;5033774;28;20459;-75
2022/06/14 11:00:06;;;;;;;5.95;1.50;;;;;;;28.60;26.50;101976.50;5033997;28;20029;-79
2022/06/14 11:02:41;;;;;;;3.70;1.38;;;;;;;28.94;25.88;101970.31;5033957;28;20026;-75
2022/06/14 11:05:39;;;;;;;2.47;1.15;;;;;;;29.13;25.43;101963.41;5033633;28;20030;-75
2022/06/14 11:08:12;;;;;;;26.92;5.28;;;;;;;29.13;25.95;101967.00;5014000;28;20026;-75
2022/06/14 11:10:46;;;;;;;5.68;1.90;;;;;;;29.15;26.14;101960.97;5014075;28;20528;-74
2022/06/14 11:13:30;;;;;;;3.88;1.63;;;;;;;29.22;25.41;101966.53;5013914;28;20025;-75
2022/06/14 11:16:06;;;;;;;4.45;1.42;;;;;;;29.22;25.73;101961.72;5021197;28;20041;-75
2022/06/14 11:19:04;;;;;;;3.58;1.30;;;;;;;29.08;25.43;101970.25;5033579;28;20029;-75
2022/06/14 11:22:08;;;;;;;4.65;1.40;;;;;;;28.70;25.95;101969.22;5022772;28;20040;-75
2022/06/14 11:24:47;;;;;;;6.75;1.75;;;;;;;29.09;26.01;101974.66;5033558;28;20029;-75
2022/06/14 11:27:27;;;;;;;3.60;1.20;;;;;;;29.30;25.90;101971.72;5033468;28;20057;-77
2022/06/14 11:29:55;;;;;;;;;;;;;;;29.33;25.65;101967.28;5033871;28;20036;-75
2022/06/14 11:32:42;;;;;;;2.17;0.90;;;;;;;29.26;25.81;101970.94;5033370;28;20335;-75
2022/06/14 11:35:14;;;;;;;4.30;1.13;;;;;;;29.37;25.80;101970.84;5033096;28;20028;-75
2022/06/14 11:38:17;;;;;;;3.22;1.33;;;;;;;29.38;25.94;101969.66;5033290;28;20022;-75
2022/06/14 11:40:48;;;;;;;4.13;1.45;;;;;;;29.62;25.65;101962.25;5033173;28;20052;-79
2022/06/14 11:43:37;;;;;;;4.15;1.50;;;;;;;29.97;25.71;101960.31;5032926;28;20033;-75
2022/06/14 11:46:34;;;;;;;7.25;1.92;;;;;;;29.49;25.37;101961.94;5032768;28;20408;-75
2022/06/14 11:49:04;;;;;;;3.22;1.48;;;;;;;29.83;24.47;101956.41;5032895;28;20030;-75
2022/06/14 11:51:45;;;;;;;4.85;1.50;;;;;;;29.84;24.31;101960.03;5033125;28;20080;-74
2022/06/14 11:54:30;;;;;;;6.65;1.50;;;;;;;30.03;24.50;101958.66;5015402;28;20395;-75
2022/06/14 11:57:22;;;;;;;3.22;1.30;;;;;;;30.18;23.60;101960.13;5032772;28;20033;-75
2022/06/14 12:00:15;;;;;;;5.72;1.35;;;;;;;30.34;22.86;101942.63;5015010;28;20040;-75
2022/06/14 12:02:56;;;;;;;5.88;1.88;;;;;;;30.33;23.43;101944.66;5032867;28;20112;-75
2022/06/14 12:05:22;;;;;;;5.05;1.80;;;;;;;30.42;24.21;101946.16;5014290;28;20041;-75
2022/06/14 12:08:20;;;;;;;4.10;1.23;;;;;;;30.36;24.35;101952.25;5032780;28;20021;-75
2022/06/14 12:10:55;;;;;;;4.75;1.27;;;;;;;30.26;24.01;101949.59;5006869;28;20037;-75
2022/06/14 12:13:41;;;;;;;4.05;1.40;;;;;;;30.30;24.20;101948.31;5014997;28;20029;-75
2022/06/14 12:16:26;;;;;;;6.70;1.70;;;;;;;30.00;24.49;101953.84;5014618;28;20140;-74
2022/06/14 12:19:24;;;;;;;5.28;1.90;;;;;;;29.95;24.18;101943.03;5004284;28;20036;-74
2022/06/14 12:22:26;;;;;;;5.38;1.73;;;;;;;29.94;24.72;101942.25;5011725;28;20517;-75
2022/06/14 12:27:47;;;;;;;9.07;2.25;;;;;;;29.63;24.92;101935.72;5032823;28;20084;-75
2022/06/14 12:30:17;;;;;;;5.90;1.42;;;;;;;29.75;24.60;101932.34;5032517;28;20033;-75
2022/06/14 12:32:56;;;;;;;2.75;1.58;;;;;;;29.38;24.90;101927.41;5014620;28;20022;-80
2022/06/14 12:35:28;;;;;;;2.90;1.20;;;;;;;29.76;24.77;101931.13;5014856;28;20037;-75